createdAt,value
2018-06-28T00:02:17.871Z,3.50
2018-06-28T00:04:46.053Z,3.03
2018-06-28T00:07:14.223Z,3.23
2018-06-28T00:09:42.752Z,2.90
2018-06-28T00:12:11.364Z,3.40
2018-06-28T00:14:39.556Z,3.37
2018-06-28T00:17:07.827Z,3.50
2018-06-28T00:19:36.024Z,3.07
2018-06-28T00:22:04.197Z,3.20
2018-06-28T00:24:32.567Z,3.13
2018-06-28T00:27:00.940Z,3.27
2018-06-28T00:29:29.261Z,3.20
2018-06-28T00:31:57.719Z,3.33
2018-06-28T00:34:26.307Z,3.83
2018-06-28T00:36:54.467Z,3.40
2018-06-28T00:39:22.628Z,4.20
2018-06-28T00:41:50.828Z,4.07
2018-06-28T00:44:19.191Z,3.80
2018-06-28T00:46:47.361Z,3.90
2018-06-28T00:49:15.496Z,3.70
2018-06-28T00:51:43.997Z,3.90
2018-06-28T00:54:12.165Z,3.90
2018-06-28T00:56:40.423Z,3.80
2018-06-28T00:59:08.615Z,3.70
2018-06-28T01:01:36.896Z,3.97
2018-06-28T01:04:05.213Z,4.30
2018-06-28T01:06:33.508Z,4.00
2018-06-28T01:09:01.823Z,4.53
2018-06-28T01:11:29.984Z,4.47
2018-06-28T01:13:58.127Z,3.87
2018-06-28T01:16:26.312Z,4.80
2018-06-28T01:18:55.083Z,4.23
2018-06-28T01:21:23.289Z,4.20
2018-06-28T01:23:51.432Z,4.40
2018-06-28T01:26:19.832Z,4.37
2018-06-28T01:28:48.009Z,4.20
2018-06-28T01:31:16.576Z,4.70
2018-06-28T01:33:45.095Z,4.27
2018-06-28T01:36:13.408Z,4.23
2018-06-28T01:38:41.727Z,4.80
2018-06-28T01:41:09.920Z,4.63
2018-06-28T01:43:43.807Z,4.57
2018-06-28T01:46:12.317Z,4.83
2018-06-28T01:48:40.710Z,4.93
2018-06-28T01:51:08.928Z,4.43
2018-06-28T01:53:37.228Z,5.17
2018-06-28T01:56:05.519Z,4.80
2018-06-28T01:58:33.785Z,4.47
2018-06-28T02:01:01.975Z,4.77
2018-06-28T02:03:30.333Z,4.70
2018-06-28T02:05:58.518Z,4.50
2018-06-28T02:08:27.016Z,5.13
2018-06-28T02:10:55.195Z,4.80
2018-06-28T02:13:23.379Z,5.03
2018-06-28T02:15:51.579Z,4.87
2018-06-28T02:18:19.883Z,4.90
2018-06-28T02:20:48.173Z,4.40
2018-06-28T02:23:16.440Z,4.70
2018-06-28T02:25:44.635Z,4.67
2018-06-28T02:28:12.996Z,4.80
2018-06-28T02:30:41.302Z,5.97
2018-06-28T02:33:09.486Z,4.90
2018-06-28T02:35:37.685Z,4.87
2018-06-28T02:38:06.232Z,5.00
2018-06-28T02:40:34.387Z,4.73
2018-06-28T02:43:03.008Z,5.17
2018-06-28T02:45:31.392Z,5.30
2018-06-28T02:47:59.655Z,5.87
2018-06-28T02:50:28.002Z,6.23
2018-06-28T02:52:56.194Z,6.20
2018-06-28T02:55:24.672Z,5.80
2018-06-28T02:57:53.063Z,5.57
2018-06-28T03:00:21.239Z,4.33
2018-06-28T03:02:49.529Z,5.40
2018-06-28T03:05:17.764Z,5.10
2018-06-28T03:07:46.283Z,5.53
2018-06-28T03:10:14.460Z,5.50
2018-06-28T03:12:42.672Z,5.60
2018-06-28T03:15:11.024Z,5.37
2018-06-28T03:17:39.170Z,6.13
2018-06-28T03:20:07.556Z,6.00
2018-06-28T03:22:35.928Z,5.70
2018-06-28T03:25:04.223Z,6.03
2018-06-28T03:27:32.376Z,5.57
2018-06-28T03:30:00.571Z,5.57
2018-06-28T03:32:28.732Z,6.60
2018-06-28T03:34:56.904Z,5.90
2018-06-28T03:37:25.116Z,6.27
2018-06-28T03:39:53.264Z,5.57
2018-06-28T03:42:21.469Z,6.40
2018-06-28T03:44:49.643Z,5.63
2018-06-28T03:47:17.913Z,6.17
2018-06-28T03:49:46.059Z,6.00
2018-06-28T03:52:14.531Z,5.70
2018-06-28T03:54:42.755Z,5.30
2018-06-28T03:57:11.072Z,6.13
2018-06-28T03:59:39.299Z,5.53
2018-06-28T04:02:07.610Z,6.27
2018-06-28T04:04:35.792Z,6.10
2018-06-28T04:07:03.961Z,5.80
2018-06-28T04:09:32.216Z,5.77
2018-06-28T04:12:00.567Z,5.87
2018-06-28T04:14:29.197Z,5.43
2018-06-28T04:16:57.421Z,5.50
2018-06-28T04:19:25.924Z,5.50
2018-06-28T04:21:54.087Z,6.40
2018-06-28T04:24:22.288Z,6.00
2018-06-28T04:26:50.680Z,6.30
2018-06-28T04:29:19.015Z,5.70
2018-06-28T04:31:47.184Z,6.23
2018-06-28T04:34:15.340Z,6.20
2018-06-28T04:36:43.481Z,6.37
2018-06-28T04:39:12.768Z,6.20
2018-06-28T04:41:41.512Z,5.73
2018-06-28T04:44:09.822Z,5.57
2018-06-28T04:46:38.151Z,5.90
2018-06-28T04:49:06.367Z,6.10
2018-06-28T04:51:34.751Z,6.07
2018-06-28T04:54:03.704Z,6.03
2018-06-28T04:56:31.899Z,6.20
2018-06-28T04:59:00.316Z,5.47
2018-06-28T05:01:28.783Z,6.20
2018-06-28T05:03:56.955Z,6.30
2018-06-28T05:06:25.144Z,6.30
2018-06-28T05:08:53.308Z,6.73
2018-06-28T05:11:21.507Z,5.10
2018-06-28T05:13:49.832Z,6.50
2018-06-28T05:16:18.036Z,6.37
2018-06-28T05:18:46.228Z,5.73
2018-06-28T05:21:14.424Z,5.20
2018-06-28T05:23:42.579Z,6.33
2018-06-28T05:26:10.987Z,6.23
2018-06-28T05:28:39.147Z,5.23
2018-06-28T05:31:07.688Z,5.70
2018-06-28T05:33:36.112Z,6.47
2018-06-28T05:36:04.361Z,6.30
2018-06-28T05:38:32.681Z,6.00
2018-06-28T05:41:00.828Z,5.63
2018-06-28T05:43:29.206Z,6.30
2018-06-28T05:45:57.676Z,6.40
2018-06-28T05:48:26.212Z,6.27
2018-06-28T05:50:54.374Z,5.67
2018-06-28T05:53:22.544Z,6.33
2018-06-28T05:55:50.757Z,6.77
2018-06-28T05:58:19.310Z,6.40
2018-06-28T06:00:47.576Z,6.80
2018-06-28T06:03:15.931Z,6.30
2018-06-28T06:05:44.116Z,6.70
2018-06-28T06:08:12.281Z,6.30
2018-06-28T06:10:40.493Z,5.90
2018-06-28T06:13:08.705Z,5.57
2018-06-28T06:15:36.868Z,6.17
2018-06-28T06:18:05.442Z,6.13
2018-06-28T06:20:33.947Z,5.83
2018-06-28T06:23:02.525Z,6.00
2018-06-28T06:25:31.247Z,6.07
2018-06-28T06:28:01.019Z,6.27
2018-06-28T06:30:30.533Z,5.53
2018-06-28T06:32:59.729Z,6.53
2018-06-28T06:35:29.165Z,6.00
2018-06-28T06:37:58.156Z,6.47
2018-06-28T06:40:26.316Z,5.53
2018-06-28T06:42:54.481Z,6.47
2018-06-28T06:45:23.060Z,6.73
2018-06-28T06:47:51.252Z,6.53
2018-06-28T06:50:19.403Z,6.20
2018-06-28T06:52:47.563Z,6.07
2018-06-28T06:55:15.805Z,6.67
2018-06-28T06:57:44.057Z,6.93
2018-06-28T07:00:12.385Z,6.20
2018-06-28T07:02:40.644Z,5.77
2018-06-28T07:05:08.828Z,5.60
2018-06-28T07:07:36.987Z,6.67
2018-06-28T07:10:05.166Z,5.97
2018-06-28T07:12:33.632Z,6.10
2018-06-28T07:15:01.843Z,6.67
2018-06-28T07:17:30.025Z,6.43
2018-06-28T07:19:58.470Z,6.43
2018-06-28T07:22:26.672Z,7.13
2018-06-28T07:24:55.195Z,6.07
2018-06-28T07:27:23.429Z,6.13
2018-06-28T07:29:51.712Z,6.40
2018-06-28T07:32:19.968Z,6.53
2018-06-28T07:34:48.344Z,6.70
2018-06-28T07:37:17.057Z,5.70
2018-06-28T07:39:45.237Z,6.67
2018-06-28T07:42:13.372Z,6.03
2018-06-28T07:44:41.601Z,5.80
2018-06-28T07:47:09.740Z,5.80
2018-06-28T07:49:38.028Z,5.33
2018-06-28T07:52:06.196Z,5.40
2018-06-28T07:54:34.491Z,4.83
2018-06-28T07:57:02.789Z,5.17
2018-06-28T07:59:31.059Z,5.03
2018-06-28T08:01:59.576Z,5.00
2018-06-28T08:04:27.733Z,4.90
2018-06-28T08:06:55.987Z,5.00
2018-06-28T08:09:24.197Z,4.63
2018-06-28T08:11:52.485Z,4.63
2018-06-28T08:14:20.633Z,5.10
2018-06-28T08:16:48.841Z,5.07
2018-06-28T08:19:17.060Z,4.63
2018-06-28T08:21:45.270Z,5.30
2018-06-28T08:24:13.520Z,5.23
2018-06-28T08:26:41.784Z,5.20
2018-06-28T08:29:10.349Z,4.60
2018-06-28T08:31:38.936Z,4.47
2018-06-28T08:34:07.212Z,5.67
2018-06-28T08:36:35.490Z,4.87
2018-06-28T08:39:05.307Z,5.47
2018-06-28T08:41:33.478Z,5.90
2018-06-28T08:44:01.987Z,5.17
2018-06-28T08:46:30.373Z,5.50
2018-06-28T08:48:58.984Z,4.83
2018-06-28T08:51:27.297Z,4.80
2018-06-28T08:53:55.728Z,4.60
2018-06-28T08:56:23.880Z,5.03
2018-06-28T08:58:52.203Z,5.10
2018-06-28T09:01:20.351Z,5.10
2018-06-28T09:03:48.512Z,5.53
2018-06-28T09:06:16.868Z,5.13
2018-06-28T09:08:45.172Z,5.10
2018-06-28T09:11:13.368Z,5.40
2018-06-28T09:13:41.534Z,5.30
2018-06-28T09:16:09.696Z,5.67
2018-06-28T09:18:37.971Z,6.47
2018-06-28T09:21:06.243Z,5.10
2018-06-28T09:23:34.431Z,5.20
2018-06-28T09:26:02.585Z,5.00
2018-06-28T09:28:31.151Z,5.57
2018-06-28T09:30:59.376Z,5.53
2018-06-28T09:33:27.606Z,4.93
2018-06-28T09:35:55.874Z,5.80
2018-06-28T09:38:24.150Z,5.40
2018-06-28T09:40:52.424Z,5.60
2018-06-28T09:43:20.639Z,5.33
2018-06-28T09:45:48.880Z,5.73
2018-06-28T09:48:17.107Z,5.93
2018-06-28T09:50:45.372Z,5.07
2018-06-28T09:53:13.539Z,5.67
2018-06-28T09:55:41.765Z,5.53
2018-06-28T09:58:09.919Z,5.37
2018-06-28T10:00:44.030Z,5.20
2018-06-28T10:03:13.200Z,4.40
2018-06-28T10:05:41.403Z,4.97
2018-06-28T10:08:10.595Z,5.33
2018-06-28T10:10:39.567Z,5.73
2018-06-28T10:13:07.872Z,5.67
2018-06-28T10:15:36.660Z,5.77
2018-06-28T10:18:04.865Z,5.20
2018-06-28T10:20:33.594Z,6.00
2018-06-28T10:23:01.780Z,5.77
2018-06-28T10:25:30.059Z,5.80
2018-06-28T10:27:58.427Z,5.83
2018-06-28T10:30:26.724Z,5.30
2018-06-28T10:32:55.012Z,5.23
2018-06-28T10:35:23.190Z,6.10
2018-06-28T10:37:51.481Z,5.13
2018-06-28T10:40:19.636Z,5.33
2018-06-28T10:42:47.917Z,5.97
2018-06-28T10:45:16.084Z,5.30
2018-06-28T10:47:44.282Z,6.10
2018-06-28T10:50:13.016Z,5.27
2018-06-28T10:52:41.323Z,6.17
2018-06-28T10:55:09.708Z,7.40
2018-06-28T10:57:38.039Z,7.10
2018-06-28T11:00:06.359Z,8.80
2018-06-28T11:02:34.747Z,7.97
2018-06-28T11:05:03.104Z,8.70
2018-06-28T11:07:31.503Z,9.43
2018-06-28T11:09:59.814Z,9.50
2018-06-28T11:12:28.032Z,10.63
2018-06-28T11:14:56.250Z,10.93
2018-06-28T11:17:24.634Z,11.80
2018-06-28T11:19:53.315Z,12.73
2018-06-28T11:22:21.584Z,13.07
2018-06-28T11:24:49.745Z,14.90
2018-06-28T11:27:18.164Z,15.77
2018-06-28T11:29:46.625Z,16.77
2018-06-28T11:32:14.796Z,16.90
2018-06-28T11:34:42.987Z,17.60
2018-06-28T11:37:11.332Z,17.50
2018-06-28T11:39:39.636Z,17.73
2018-06-28T11:42:08.195Z,20.93
2018-06-28T11:44:36.395Z,18.80
2018-06-28T11:47:05.085Z,20.03
2018-06-28T11:49:33.265Z,19.40
2018-06-28T11:52:01.416Z,17.13
2018-06-28T11:54:29.619Z,18.13
2018-06-28T11:56:58.276Z,15.70
2018-06-28T11:59:26.709Z,15.43
2018-06-28T12:01:55.001Z,16.50
2018-06-28T12:04:23.440Z,14.50
2018-06-28T12:06:51.656Z,13.70
2018-06-28T12:09:19.976Z,14.57
2018-06-28T12:11:48.165Z,13.20
2018-06-28T12:14:16.419Z,13.87
2018-06-28T12:16:44.628Z,12.63
2018-06-28T12:19:12.879Z,11.93
2018-06-28T12:21:41.056Z,14.03
2018-06-28T12:24:09.275Z,14.37
2018-06-28T12:26:37.652Z,13.07
2018-06-28T12:29:05.812Z,14.03
2018-06-28T12:31:34.291Z,13.30
2018-06-28T12:34:02.455Z,14.30
2018-06-28T12:36:30.612Z,13.07
2018-06-28T12:38:58.855Z,13.83
2018-06-28T12:41:27.164Z,14.13
2018-06-28T12:43:55.333Z,17.27
2018-06-28T12:48:32.092Z,15.90
2018-06-28T12:51:00.289Z,16.70
2018-06-28T12:53:28.501Z,18.13
2018-06-28T12:56:28.403Z,15.73
2018-06-28T12:58:58.247Z,15.20
2018-06-28T13:01:27.227Z,15.10
2018-06-28T13:03:56.115Z,15.30
2018-06-28T13:06:24.968Z,15.63
2018-06-28T13:08:53.928Z,14.67
2018-06-28T13:11:24.240Z,14.47
2018-06-28T13:13:52.920Z,13.50
2018-06-28T13:16:22.011Z,13.20
2018-06-28T13:18:50.672Z,13.77
2018-06-28T13:21:18.972Z,11.80
2018-06-28T13:23:47.167Z,11.60
2018-06-28T13:26:16.314Z,10.40
2018-06-28T13:28:45.163Z,11.00
2018-06-28T13:31:13.465Z,11.50
2018-06-28T13:33:41.650Z,12.70
2018-06-28T13:36:09.999Z,12.00
2018-06-28T13:38:38.160Z,10.80
2018-06-28T13:41:06.863Z,11.87
2018-06-28T13:43:35.122Z,12.40
2018-06-28T13:46:04.120Z,11.40
2018-06-28T13:48:32.284Z,12.70
2018-06-28T13:51:00.475Z,12.70
2018-06-28T13:53:28.712Z,12.57
2018-06-28T13:55:56.927Z,12.63
2018-06-28T13:58:25.091Z,11.87
2018-06-28T14:00:53.487Z,11.33
2018-06-28T14:03:21.852Z,11.73
2018-06-28T14:05:50.467Z,13.13
2018-06-28T14:08:18.720Z,11.53
2018-06-28T14:10:47.118Z,11.70
2018-06-28T14:13:15.686Z,14.27
2018-06-28T14:15:43.848Z,12.20
2018-06-28T14:18:12.261Z,13.20
2018-06-28T14:20:40.516Z,12.77
2018-06-28T14:23:08.685Z,12.57
2018-06-28T14:25:36.864Z,13.17
2018-06-28T14:28:05.192Z,14.60
2018-06-28T14:30:33.451Z,13.70
2018-06-28T14:33:01.758Z,13.40
2018-06-28T14:35:29.925Z,13.80
2018-06-28T14:37:58.079Z,14.20
2018-06-28T14:40:26.263Z,15.70
2018-06-28T14:42:54.524Z,15.03
2018-06-28T14:45:22.784Z,14.40
2018-06-28T14:47:51.362Z,14.17
2018-06-28T14:50:19.538Z,14.63
2018-06-28T14:52:47.696Z,14.83
2018-06-28T14:55:15.906Z,14.63
2018-06-28T14:57:44.116Z,15.30
2018-06-28T15:00:12.681Z,14.50
2018-06-28T15:02:40.866Z,14.70
2018-06-28T15:05:09.130Z,15.80
2018-06-28T15:07:37.660Z,14.70
2018-06-28T15:10:05.854Z,14.53
2018-06-28T15:12:34.029Z,14.70
2018-06-28T15:15:02.285Z,15.20
2018-06-28T15:17:31.038Z,15.00
2018-06-28T15:19:59.151Z,14.60
2018-06-28T15:22:27.367Z,15.10
2018-06-28T15:24:55.512Z,16.83
2018-06-28T15:27:23.828Z,15.53
2018-06-28T15:29:52.323Z,15.87
2018-06-28T15:32:20.567Z,14.27
2018-06-28T15:34:48.782Z,14.53
2018-06-28T15:37:16.960Z,13.80
2018-06-28T15:39:45.137Z,17.63
2018-06-28T15:42:13.787Z,17.17
2018-06-28T15:44:42.256Z,16.77
2018-06-28T15:47:10.855Z,16.70
2018-06-28T15:49:39.495Z,17.17
2018-06-28T15:52:08.276Z,17.63
2018-06-28T15:54:36.637Z,19.97
2018-06-28T15:57:05.192Z,20.60
2018-06-28T15:59:33.419Z,19.90
2018-06-28T16:02:01.616Z,19.50
2018-06-28T16:04:29.775Z,19.00
2018-06-28T16:06:58.016Z,19.20
2018-06-28T16:09:26.307Z,18.73
2018-06-28T16:11:54.513Z,20.10
2018-06-28T16:14:23.577Z,18.40
2018-06-28T16:16:51.762Z,18.87
2018-06-28T16:19:19.996Z,19.70
2018-06-28T16:21:48.176Z,19.47
2018-06-28T16:24:16.707Z,18.73
2018-06-28T16:26:44.983Z,18.80
2018-06-28T16:29:13.317Z,18.43
2018-06-28T16:31:41.488Z,17.93
2018-06-28T16:34:09.671Z,17.67
2018-06-28T16:36:38.052Z,19.10
2018-06-28T16:39:07.752Z,17.63
2018-06-28T16:41:36.158Z,16.53
2018-06-28T16:44:04.354Z,16.80
2018-06-28T16:46:32.991Z,17.20
2018-06-28T16:49:01.474Z,14.93
2018-06-28T16:51:29.848Z,16.23
2018-06-28T16:53:58.033Z,15.87
2018-06-28T16:56:26.296Z,14.80
2018-06-28T16:58:54.503Z,15.50
2018-06-28T17:01:22.860Z,15.20
2018-06-28T17:03:51.101Z,15.00
2018-06-28T17:06:19.282Z,14.13
2018-06-28T17:08:47.604Z,15.40
2018-06-28T17:11:15.949Z,14.60
2018-06-28T17:13:44.443Z,13.87
2018-06-28T17:16:12.627Z,14.20
2018-06-28T17:18:40.887Z,12.97
2018-06-28T17:21:09.199Z,15.33
2018-06-28T17:23:37.471Z,14.93
2018-06-28T17:26:05.979Z,15.53
2018-06-28T17:28:34.175Z,16.40
2018-06-28T17:31:02.364Z,15.87
2018-06-28T17:33:30.584Z,17.60
2018-06-28T17:35:58.855Z,17.10
2018-06-28T17:38:27.147Z,16.83
2018-06-28T17:40:55.419Z,15.70
2018-06-28T17:43:23.791Z,15.10
2018-06-28T17:45:52.098Z,15.60
2018-06-28T17:48:20.260Z,17.23
2018-06-28T17:50:48.456Z,14.50
2018-06-28T17:53:16.657Z,16.50
2018-06-28T17:55:45.323Z,16.27
2018-06-28T17:58:13.498Z,17.17
2018-06-28T18:00:41.801Z,16.87
2018-06-28T18:03:10.010Z,16.57
2018-06-28T18:05:38.424Z,18.07
2018-06-28T18:08:06.719Z,18.53
2018-06-28T18:10:34.887Z,17.40
2018-06-28T18:13:03.181Z,18.10
2018-06-28T18:15:31.394Z,17.07
2018-06-28T18:17:59.593Z,17.63
2018-06-28T18:20:27.795Z,19.00
2018-06-28T18:22:55.980Z,19.70
2018-06-28T18:25:24.213Z,18.30
2018-06-28T18:27:52.462Z,17.43
2018-06-28T18:30:20.738Z,18.10
2018-06-28T18:32:49.200Z,19.33
2018-06-28T18:35:17.743Z,18.87
2018-06-28T18:37:45.954Z,19.20
2018-06-28T18:40:14.096Z,16.80
2018-06-28T18:42:42.370Z,19.33
2018-06-28T18:45:10.628Z,17.57
2018-06-28T18:47:38.975Z,17.00
2018-06-28T18:50:07.390Z,17.50
2018-06-28T18:52:35.945Z,18.10
2018-06-28T18:55:04.250Z,18.57
2018-06-28T18:57:32.527Z,15.90
2018-06-28T19:00:01.363Z,16.00
2018-06-28T19:02:29.522Z,16.13
2018-06-28T19:04:57.781Z,15.50
2018-06-28T19:07:25.977Z,15.27
2018-06-28T19:09:59.460Z,15.47
2018-06-28T19:12:27.676Z,16.17
2018-06-28T19:15:01.569Z,14.37
2018-06-28T19:17:29.786Z,16.37
2018-06-28T19:19:58.048Z,16.30
2018-06-28T19:23:30.647Z,17.90
2018-06-28T19:25:58.805Z,16.53
2018-06-28T19:28:27.015Z,17.00
2018-06-28T19:31:00.708Z,17.27
2018-06-28T19:33:28.923Z,17.67
2018-06-28T19:35:57.484Z,17.20
2018-06-28T19:38:29.963Z,15.17
2018-06-28T19:42:01.434Z,17.10
2018-06-28T19:44:29.680Z,14.80
2018-06-28T19:46:58.279Z,14.67
2018-06-28T19:49:31.892Z,11.63
2018-06-28T19:52:05.700Z,13.00
2018-06-28T19:54:34.062Z,14.80
2018-06-28T19:57:02.474Z,16.30
2018-06-28T19:59:35.197Z,15.47
2018-06-28T20:02:08.765Z,15.63
2018-06-28T20:04:42.489Z,13.60
2018-06-28T20:07:10.634Z,14.67
2018-06-28T20:09:38.948Z,13.53
2018-06-28T20:12:11.665Z,12.90
2018-06-28T20:14:45.313Z,13.87
2018-06-28T20:17:18.947Z,13.80
2018-06-28T20:19:52.667Z,14.00
2018-06-28T20:22:21.097Z,14.10
2018-06-28T20:24:49.383Z,14.63
2018-06-28T20:27:23.043Z,14.13
2018-06-28T20:30:58.324Z,14.93
2018-06-28T20:33:32.145Z,14.40
2018-06-28T20:36:00.816Z,15.60
2018-06-28T20:38:29.609Z,15.50
2018-06-28T20:40:57.775Z,15.53
2018-06-28T20:43:26.194Z,16.57
2018-06-28T20:45:54.485Z,17.00
2018-06-28T20:48:22.781Z,17.27
2018-06-28T20:50:51.469Z,14.63
2018-06-28T20:53:19.820Z,16.20
2018-06-28T20:55:48.055Z,17.10
2018-06-28T20:58:16.673Z,16.67
2018-06-28T21:00:44.916Z,15.03
2018-06-28T21:03:13.126Z,15.43
2018-06-28T21:05:41.280Z,14.07
2018-06-28T21:08:09.940Z,13.17
2018-06-28T21:10:38.104Z,14.20
2018-06-28T21:13:06.496Z,14.00
2018-06-28T21:15:34.670Z,15.17
2018-06-28T21:18:02.851Z,10.77
2018-06-28T21:20:31.129Z,12.60
2018-06-28T21:22:59.291Z,13.27
2018-06-28T21:25:27.479Z,14.57
2018-06-28T21:27:55.649Z,13.70
2018-06-28T21:30:23.871Z,13.50
2018-06-28T21:32:52.100Z,14.00
2018-06-28T21:35:20.264Z,14.07
2018-06-28T21:37:48.623Z,14.90
2018-06-28T21:40:16.790Z,17.30
2018-06-28T21:42:45.216Z,16.10
2018-06-28T21:45:13.423Z,16.87
2018-06-28T21:47:41.581Z,16.60
2018-06-28T21:50:09.780Z,17.10
2018-06-28T21:52:37.923Z,17.67
2018-06-28T21:55:06.170Z,16.70
2018-06-28T21:57:34.669Z,18.47
2018-06-28T22:00:03.273Z,18.03
2018-06-28T22:02:31.468Z,18.10
2018-06-28T22:05:00.084Z,18.67
2018-06-28T22:07:28.588Z,18.87
2018-06-28T22:09:56.881Z,18.37
2018-06-28T22:12:25.192Z,20.23
2018-06-28T22:14:53.359Z,18.10
2018-06-28T22:17:21.510Z,19.43
2018-06-28T22:19:49.745Z,17.83
2018-06-28T22:22:18.063Z,17.50
2018-06-28T22:24:46.236Z,16.60
2018-06-28T22:27:14.391Z,17.27
2018-06-28T22:29:42.639Z,18.90
2018-06-28T22:32:11.044Z,17.73
2018-06-28T22:34:39.295Z,17.53
2018-06-28T22:37:07.521Z,16.83
2018-06-28T22:39:35.721Z,15.70
2018-06-28T22:42:03.890Z,14.40
2018-06-28T22:44:32.097Z,15.17
2018-06-28T22:47:01.351Z,14.20
2018-06-28T22:49:29.715Z,14.07
2018-06-28T22:51:58.074Z,12.43
2018-06-28T22:54:26.300Z,13.50
2018-06-28T22:56:54.559Z,11.77
2018-06-28T22:59:22.760Z,11.30
2018-06-28T23:01:50.944Z,10.57
2018-06-28T23:04:19.292Z,10.47
2018-06-28T23:06:47.462Z,10.53
2018-06-28T23:09:15.876Z,9.93
2018-06-28T23:11:44.021Z,10.00
2018-06-28T23:14:12.220Z,11.23
2018-06-28T23:16:40.696Z,10.10
2018-06-28T23:19:09.000Z,10.53
2018-06-28T23:21:37.360Z,10.40
2018-06-28T23:24:06.079Z,11.60
2018-06-28T23:26:34.257Z,11.03
2018-06-28T23:29:02.611Z,11.40
2018-06-28T23:31:30.961Z,11.87
2018-06-28T23:33:59.372Z,11.43
2018-06-28T23:36:27.716Z,12.13
2018-06-28T23:38:56.100Z,11.53
2018-06-28T23:41:24.302Z,11.93
2018-06-28T23:43:52.813Z,11.60
2018-06-28T23:46:21.441Z,11.40
2018-06-28T23:48:49.807Z,11.20
2018-06-28T23:51:17.957Z,11.27
2018-06-28T23:53:46.139Z,10.50
2018-06-28T23:56:14.371Z,12.17
2018-06-28T23:58:42.894Z,11.90
